Laurinburg, NC

3:31 PM EDT on August 30, 2015 (GMT -0400)
Laurinburg-Maxton | | Change Station
CLOSE
Current Station
Airport
Location: Laurinburg-Maxton,
Elevation: 220 ft
Nearby Weather Stations

Elev 220 ft 34.79 °N, 79.37 °W | Updated 39 minutes ago

Mostly Cloudy
Mostly Cloudy
81 °F
Feels Like 82 °F
N
8
Wind Variable Wind from SSE

Today
High -- | Low -- °F
--% Chance of Precip.
Yesterday
High -- | Low -- °F
Precip. -- in
6:48 AM 7:46 PM
Full, 98% visible
Pressure 30.15 in
Visibility 10.0 miles
Clouds Few 3400 ft
Few 8500 ft
Mostly Cloudy 12000 ft
Heat Index 82 °F
Dew Point 62 °F
Humidity 52%
Rainfall 0.00 in
Snow Depth Not available.
UV 5 out of 12
Pollen 4.90 out of 12
Air Quality Not available.
Flu Activity Not available.
METAR KMEB 301852Z AUTO 16007KT 10SM FEW034 FEW085 BKN120 27/17 A3015 RMK AO2 SLP208 T02720167
Pressure 30.15 in
Visibility 10.0 miles
Clouds Few 3400 ft
Few 8500 ft
Mostly Cloudy 12000 ft
Heat Index 82 °F
Dew Point 62 °F
Humidity 52%
Rainfall 0.00 in
Snow Depth Not available.
UV 5 out of 12
Pollen 4.90 out of 12
Air Quality Not available.
Flu Activity Not available.
METAR KMEB 301852Z AUTO 16007KT 10SM FEW034 FEW085 BKN120 27/17 A3015 RMK AO2 SLP208 T02720167

10-Day Weather Forecast

×

Almanac

Astronomy

Aug. 30, 2015 Rise Set
Actual Time
Civil Twilight
Nautical Twilight
Astronomical Twilight
Moon
Length of Visible Light
Length of Day
Tomorrow will be .
, % of the Moon is Illuminated

Today's Extremes

State Highs State Lows

Community

WunderPhotos

Upload Photos

1,851,040 photos uploaded!

WunderBlogs® & News

Nearby

Air Quality

  Air Quality AQ Index Pollutant
Not available.

Snow Depth

Station Depth Elevation

Earthquake Activity

City Distance Mag. Time & Date
Minimum magnitude displayed is 2.5.

Coastal Water Temperatures

Place Temperature

Stations

Nearby Weather Stations

Station Location Temp. Windchill Dew Point Humidity Wind Precip. Elev Updated Type